首页
METAR-TAF:

METAR-TAF

机场 :

曼德勒國際機場

曼德勒, 缅甸

纬度: 21-59N, 经度: 096-06E, 海拔: 74米

当前天气观测

该预报发布于10小时和27分钟前的11:30 UTC
风速7节,风向
温度 35°C
湿度 53%
气压 999 hPa
能見度: 6000
散云层高于2500英尺
散云层高于12000英尺

METAR: VYMD 221130Z 18007KT 6000 SCT025 SCT120 35/24 Q0999 NOSIG

时间: 04:27 (21:57 UTC)

预报

该预报发布于4小时和57分钟前的17:00 UTC
预报有效从22日的 18点(UTC)到 23日的 18点(UTC)
风速7节,风向
能見度: 7000
散云层高于2000英尺
散云层高于12000英尺
短暂存在
从 22日的 18点(UTC)到 22日的 24点(UTC)
风速8节,风向,有时为18节阵风
能見度: 6000
多云层高于2000英尺
少量云层高于2500英尺, 积雨云.

TAF: VYMD 221700Z 2218/2318 18007KT 7000 SCT020 SCT120 TEMPO 2218/2224 18008G18KT 6000 BKN020 FEW025CB

超过4000个机场的气象观测和天气预报(METAR&TAF报告)。

可查询的气象台以黄色和红色小点在地图上表示。

将鼠标移到小点上方,可查看气象台名称。

然后点击查看天气观测和预报。

如需切换地图:点击带黑十字的绿色按钮放大地图;点击带横线的绿色按钮缩小地图;或者点击绿色箭头查看邻近地区的地图。


METAR-TAF: